Time;durP1;ratioP1;P1;durP2;ratioP2;P2;SDS_P1;SDS_P2;PMS_P1;PMS_P2;Temp;Humidity;BMP_temperature;BMP_pressure;BME280_temperature;BME280_humidity;BME280_pressure;Samples;Min_cycle;Max_cycle;Signal;HPM_P1;HPM_P2
2022/07/27 00:01:19;;;;;;;5.40;0.88;;;16.90;99.90;;;;;;5022861;28;20176;-83
2022/07/27 00:03:45;;;;;;;3.60;1.40;;;16.90;99.90;;;;;;5024878;28;20218;-84
2022/07/27 00:06:11;;;;;;;2.42;0.85;;;16.70;99.90;;;;;;5027438;28;20191;-83
2022/07/27 00:08:37;;;;;;;5.53;0.80;;;16.90;99.90;;;;;;5042488;28;20202;-83
2022/07/27 00:11:03;;;;;;;0.98;0.55;;;16.90;99.90;;;;;;5039692;28;20148;-83
2022/07/27 00:13:32;;;;;;;1.30;0.70;;;17.00;99.90;;;;;;5040238;28;20217;-83
2022/07/27 00:15:58;;;;;;;1.23;0.82;;;17.00;99.90;;;;;;5017859;28;20192;-83
2022/07/27 00:18:24;;;;;;;4.72;0.70;;;16.80;99.90;;;;;;5046079;28;20207;-82
2022/07/27 00:20:50;;;;;;;3.33;1.08;;;16.70;99.90;;;;;;5026977;28;20219;-83
2022/07/27 00:23:16;;;;;;;2.08;0.95;;;16.80;99.90;;;;;;5029834;28;20206;-82
2022/07/27 00:25:43;;;;;;;4.47;0.85;;;16.50;99.90;;;;;;5047565;28;20207;-83
2022/07/27 00:28:08;;;;;;;0.75;0.65;;;16.50;99.90;;;;;;5031145;28;20172;-83
2022/07/27 00:30:34;;;;;;;1.52;0.90;;;16.70;99.90;;;;;;5028312;28;20175;-83
2022/07/27 00:33:00;;;;;;;2.60;0.90;;;16.50;99.90;;;;;;5044267;28;20167;-83
2022/07/27 00:35:27;;;;;;;4.13;0.90;;;16.60;99.90;;;;;;5030584;28;20191;-82
2022/07/27 00:37:54;;;;;;;7.00;1.00;;;16.60;99.90;;;;;;5030035;28;20171;-83
2022/07/27 00:40:20;;;;;;;4.07;0.77;;;16.40;99.90;;;;;;5026496;28;20219;-82
2022/07/27 00:42:46;;;;;;;0.85;0.68;;;16.40;99.90;;;;;;5047917;28;20167;-83
2022/07/27 00:45:11;;;;;;;5.38;0.93;;;16.60;99.90;;;;;;5033536;28;20187;-82
2022/07/27 00:47:37;;;;;;;1.52;0.90;;;16.70;99.90;;;;;;5048917;28;20187;-82
2022/07/27 00:50:04;;;;;;;3.40;1.10;;;16.60;99.90;;;;;;5031802;28;20172;-82
2022/07/27 00:52:33;;;;;;;3.50;1.27;;;16.80;99.90;;;;;;5042240;28;20176;-82
2022/07/27 00:54:59;;;;;;;3.70;1.10;;;16.90;99.90;;;;;;5023960;28;20183;-82
2022/07/27 00:57:27;;;;;;;1.98;1.10;;;16.70;99.90;;;;;;5043360;28;20196;-83
2022/07/27 00:59:56;;;;;;;4.22;1.20;;;16.80;99.90;;;;;;5022817;28;20203;-83
2022/07/27 01:02:21;;;;;;;2.65;0.93;;;16.50;99.90;;;;;;5041788;28;20183;-83
2022/07/27 01:04:51;;;;;;;2.38;0.95;;;16.30;99.90;;;;;;5043370;28;20172;-83
2022/07/27 01:07:16;;;;;;;1.35;0.80;;;16.40;99.90;;;;;;5041859;28;20192;-82
2022/07/27 01:09:58;;;;;;;2.78;1.08;;;16.20;99.90;;;;;;5028932;28;20690;-82
2022/07/27 01:12:26;;;;;;;15.65;1.05;;;16.40;99.90;;;;;;5027311;28;20237;-82
2022/07/27 01:14:53;;;;;;;1.42;0.70;;;16.30;99.90;;;;;;5027015;28;20202;-82
2022/07/27 01:17:20;;;;;;;7.45;1.50;;;16.30;99.90;;;;;;5045498;28;20187;-83
2022/07/27 01:19:46;;;;;;;3.83;0.90;;;16.30;99.90;;;;;;5030698;28;20216;-82
2022/07/27 01:22:18;;;;;;;6.47;1.20;;;16.40;99.90;;;;;;5050530;28;20258;-82
2022/07/27 01:24:48;;;;;;;2.83;1.25;;;16.50;99.90;;;;;;5030306;28;20715;-83
2022/07/27 01:27:20;;;;;;;7.22;1.05;;;16.60;99.90;;;;;;5053145;28;20208;-83
2022/07/27 01:29:45;;;;;;;3.88;1.13;;;16.50;99.90;;;;;;5018442;28;20703;-82
2022/07/27 01:32:18;;;;;;;3.10;1.00;;;16.20;99.90;;;;;;5030570;28;20214;-82
2022/07/27 01:34:43;;;;;;;5.40;0.95;;;16.30;99.90;;;;;;5052950;28;20168;-83
2022/07/27 01:37:21;;;;;;;3.13;0.80;;;16.40;99.90;;;;;;5029089;28;20195;-83
2022/07/27 01:39:48;;;;;;;3.50;0.90;;;16.20;99.90;;;;;;5030359;28;20202;-83
2022/07/27 01:42:15;;;;;;;5.32;1.15;;;16.00;99.90;;;;;;5028410;28;20235;-83
2022/07/27 01:44:42;;;;;;;7.10;0.98;;;16.00;99.90;;;;;;5028948;28;20620;-83
2022/07/27 01:47:08;;;;;;;5.60;0.90;;;16.20;99.90;;;;;;5055320;28;20195;-83
2022/07/27 01:49:34;;;;;;;3.60;0.77;;;16.10;99.90;;;;;;5021546;28;20516;-83
2022/07/27 01:52:00;;;;;;;3.53;0.90;;;15.90;99.90;;;;;;5017273;28;20527;-82
2022/07/27 01:54:25;;;;;;;2.42;1.17;;;16.00;99.90;;;;;;5034901;28;20172;-82
2022/07/27 01:56:51;;;;;;;10.18;1.38;;;16.20;99.90;;;;;;5017355;28;20180;-82
2022/07/27 01:59:16;;;;;;;1.95;0.90;;;16.30;99.90;;;;;;5017147;28;20234;-82
2022/07/27 02:01:42;;;;;;;5.38;1.00;;;16.20;99.90;;;;;;5026738;28;20505;-82
2022/07/27 02:04:08;;;;;;;5.22;0.90;;;16.10;99.90;;;;;;5038148;28;20167;-83
2022/07/27 02:06:35;;;;;;;2.85;0.68;;;16.10;99.90;;;;;;5041742;28;20187;-83
2022/07/27 02:09:03;;;;;;;3.58;0.70;;;16.20;99.90;;;;;;5035761;28;20186;-83
2022/07/27 02:14:12;;;;;;;5.20;1.10;;;16.10;99.90;;;;;;5034623;28;20218;-82
2022/07/27 02:16:38;;;;;;;5.18;1.15;;;16.20;99.90;;;;;;5016648;28;20216;-82
2022/07/27 02:19:03;;;;;;;3.80;0.80;;;16.10;99.90;;;;;;5016283;28;20770;-82
2022/07/27 02:21:29;;;;;;;2.72;0.90;;;16.10;99.90;;;;;;5034372;28;20194;-82
2022/07/27 02:23:55;;;;;;;2.38;0.85;;;15.90;99.90;;;;;;5034345;28;20172;-82
2022/07/27 02:26:20;;;;;;;2.72;0.98;;;15.70;99.90;;;;;;5016513;28;20191;-82
2022/07/27 02:28:46;;;;;;;2.95;0.95;;;15.80;99.90;;;;;;5034387;28;20172;-83
2022/07/27 02:31:27;;;;;;;1.38;0.90;;;15.90;99.90;;;;;;5043319;28;20164;-82
2022/07/27 02:33:52;;;;;;;0.85;0.70;;;15.80;99.90;;;;;;5035794;28;20172;-83
2022/07/27 02:36:18;;;;;;;2.47;0.90;;;15.90;99.90;;;;;;5018876;28;20295;-83
2022/07/27 02:38:43;;;;;;;3.13;0.90;;;15.70;99.90;;;;;;5019714;28;20172;-82
2022/07/27 02:41:09;;;;;;;7.97;1.10;;;15.80;99.90;;;;;;5020934;28;20176;-82
2022/07/27 02:43:34;;;;;;;2.30;1.08;;;16.00;99.90;;;;;;5042547;28;20454;-82
2022/07/27 02:46:08;;;;;;;5.05;1.00;;;15.90;99.90;;;;;;5053025;28;20238;-82
2022/07/27 02:48:41;;;;;;;3.67;1.25;;;15.70;99.90;;;;;;5049175;28;20168;-82
2022/07/27 02:51:14;;;;;;;2.28;1.08;;;15.70;99.90;;;;;;5047112;28;20199;-82
2022/07/27 02:53:42;;;;;;;2.92;1.00;;;15.70;99.90;;;;;;5028462;28;20176;-82
2022/07/27 02:56:08;;;;;;;0.70;0.70;;;15.90;99.90;;;;;;5039787;28;20237;-83
2022/07/27 02:58:43;;;;;;;2.90;0.82;;;15.80;99.90;;;;;;5047504;28;20168;-82
2022/07/27 03:01:14;;;;;;;1.38;0.68;;;15.90;99.90;;;;;;5031525;28;20174;-83
2022/07/27 03:03:41;;;;;;;8.23;1.23;;;15.80;99.90;;;;;;5045212;28;20171;-81
2022/07/27 03:06:07;;;;;;;1.45;0.90;;;15.80;99.90;;;;;;5037573;28;20612;-82
2022/07/27 03:08:34;;;;;;;1.20;0.90;;;15.80;99.90;;;;;;5041008;28;20172;-83
2022/07/27 03:11:00;;;;;;;4.45;0.95;;;15.70;99.90;;;;;;5035540;28;20180;-80
2022/07/27 03:13:27;;;;;;;1.63;0.90;;;15.70;99.90;;;;;;5023933;28;20175;-82
2022/07/27 03:15:53;;;;;;;1.50;1.05;;;15.90;99.90;;;;;;5021181;28;20192;-82
2022/07/27 03:18:19;;;;;;;6.32;1.15;;;15.80;99.90;;;;;;5015883;28;20178;-83
2022/07/27 03:20:45;;;;;;;6.95;0.90;;;15.60;99.90;;;;;;5015747;28;20204;-83
2022/07/27 03:23:10;;;;;;;2.95;1.17;;;15.60;99.90;;;;;;5032095;28;20641;-82
2022/07/27 03:25:36;;;;;;;5.45;1.40;;;15.70;99.90;;;;;;5015691;28;20175;-83
2022/07/27 03:28:01;;;;;;;1.65;1.10;;;15.70;99.90;;;;;;5015632;28;20659;-83
2022/07/27 03:30:27;;;;;;;4.82;1.13;;;15.60;99.90;;;;;;5015487;28;20176;-82
2022/07/27 03:32:52;;;;;;;6.88;1.00;;;15.60;99.90;;;;;;5015071;28;20270;-82
2022/07/27 03:35:18;;;;;;;2.17;1.00;;;15.70;99.90;;;;;;5031518;28;20160;-83
2022/07/27 03:37:44;;;;;;;2.55;1.30;;;15.50;99.90;;;;;;5014850;28;20214;-82
2022/07/27 03:40:10;;;;;;;4.38;1.08;;;15.50;99.90;;;;;;5032906;28;20218;-83
2022/07/27 03:42:36;;;;;;;2.38;1.05;;;15.60;99.90;;;;;;5014922;28;20183;-82
2022/07/27 03:45:03;;;;;;;3.88;1.13;;;15.50;99.90;;;;;;5015222;28;20172;-82
2022/07/27 03:47:29;;;;;;;0.90;0.75;;;15.50;99.90;;;;;;5032800;28;20564;-82
2022/07/27 03:49:54;;;;;;;6.68;1.10;;;15.30;99.90;;;;;;5014909;28;20214;-83
2022/07/27 03:52:20;;;;;;;9.63;1.30;;;15.20;99.90;;;;;;5017902;28;20179;-82
2022/07/27 03:54:46;;;;;;;3.80;1.25;;;15.30;99.90;;;;;;5015336;28;20180;-82
2022/07/27 03:57:12;;;;;;;5.13;1.25;;;15.30;99.90;;;;;;5032670;28;20703;-83
2022/07/27 03:59:38;;;;;;;9.05;1.55;;;15.20;99.90;;;;;;5032659;28;20678;-82
2022/07/27 04:02:04;;;;;;;7.57;1.52;;;15.20;99.90;;;;;;5014759;28;20260;-83
2022/07/27 04:04:29;;;;;;;4.40;1.45;;;15.00;99.90;;;;;;5032856;28;20164;-82
2022/07/27 04:06:55;;;;;;;1.30;1.20;;;15.20;99.90;;;;;;5032241;28;20540;-82
2022/07/27 04:09:21;;;;;;;10.05;1.67;;;15.20;99.90;;;;;;5014813;28;20306;-82
2022/07/27 04:11:46;;;;;;;2.33;1.33;;;15.40;99.90;;;;;;5031511;28;20175;-82
2022/07/27 04:14:13;;;;;;;5.60;1.40;;;15.30;99.90;;;;;;5031298;28;20318;-83
2022/07/27 04:16:40;;;;;;;7.03;1.40;;;15.40;99.90;;;;;;5031198;28;20183;-83
2022/07/27 04:19:06;;;;;;;2.72;1.40;;;15.40;99.90;;;;;;5014619;28;20243;-82
2022/07/27 04:21:33;;;;;;;5.90;1.88;;;15.40;99.90;;;;;;5014202;28;20632;-82
2022/07/27 04:23:59;;;;;;;4.35;1.27;;;15.30;99.90;;;;;;5032596;28;20190;-83
2022/07/27 04:26:24;;;;;;;5.07;1.70;;;15.30;99.90;;;;;;5015575;28;20203;-83
2022/07/27 04:28:50;;;;;;;7.03;1.15;;;15.20;99.90;;;;;;5032289;28;20171;-83
2022/07/27 04:31:15;;;;;;;6.95;1.40;;;15.10;99.90;;;;;;5018133;28;20583;-82
2022/07/27 04:33:41;;;;;;;5.35;1.70;;;15.20;99.90;;;;;;5021781;28;20168;-82
2022/07/27 04:36:08;;;;;;;4.25;1.27;;;15.10;99.90;;;;;;5055226;28;20227;-82
2022/07/27 04:38:33;;;;;;;10.93;1.88;;;15.10;99.90;;;;;;5036087;28;20524;-83
2022/07/27 04:40:59;;;;;;;6.35;1.80;;;15.30;99.90;;;;;;5018741;28;20629;-83
2022/07/27 04:43:25;;;;;;;6.97;2.05;;;15.30;99.90;;;;;;5036216;28;20171;-82
2022/07/27 04:45:50;;;;;;;3.92;1.27;;;15.40;99.90;;;;;;5036579;28;20668;-84
2022/07/27 04:48:16;;;;;;;3.90;1.60;;;15.40;99.90;;;;;;5018643;28;20164;-83
2022/07/27 04:50:48;;;;;;;5.45;1.70;;;15.50;99.90;;;;;;5027343;28;20730;-83
2022/07/27 04:53:15;;;;;;;3.13;2.17;;;15.60;99.90;;;;;;5028207;28;20172;-83
2022/07/27 04:55:42;;;;;;;4.88;2.00;;;15.40;99.90;;;;;;5023280;28;20198;-84
2022/07/27 04:58:08;;;;;;;5.20;2.03;;;15.50;99.90;;;;;;5020466;28;20164;-82
2022/07/27 05:00:34;;;;;;;2.88;1.80;;;15.60;99.90;;;;;;5041367;28;20579;-82
2022/07/27 05:03:00;;;;;;;4.72;1.70;;;15.60;99.90;;;;;;5021054;28;20267;-83
2022/07/27 05:05:25;;;;;;;8.38;1.60;;;15.60;99.90;;;;;;5018135;28;20176;-84
2022/07/27 05:07:51;;;;;;;4.88;1.80;;;15.80;99.90;;;;;;5035650;28;20194;-80
2022/07/27 05:10:17;;;;;;;9.80;1.95;;;16.10;99.90;;;;;;5035610;28;20240;-81
2022/07/27 05:12:43;;;;;;;16.48;1.80;;;16.30;99.90;;;;;;5055751;28;20163;-82
2022/07/27 05:15:09;;;;;;;7.18;1.75;;;16.30;99.90;;;;;;5055340;28;20232;-81
2022/07/27 05:17:35;;;;;;;2.75;1.58;;;16.40;99.90;;;;;;5037170;28;20255;-86
2022/07/27 05:20:01;;;;;;;2.08;1.20;;;16.50;99.90;;;;;;5055063;28;20198;-81
2022/07/27 05:22:26;;;;;;;4.65;1.50;;;16.70;99.90;;;;;;5055323;28;20159;-82
2022/07/27 05:24:52;;;;;;;7.75;1.30;;;16.80;99.90;;;;;;5055571;28;20178;-81
2022/07/27 05:27:17;;;;;;;5.93;1.02;;;16.80;99.90;;;;;;5036818;28;20195;-81
2022/07/27 05:29:43;;;;;;;6.45;1.15;;;16.90;99.90;;;;;;5036605;28;20210;-82
2022/07/27 05:32:09;;;;;;;4.68;1.45;;;16.90;99.90;;;;;;5055320;28;20707;-82
2022/07/27 05:34:34;;;;;;;4.72;1.08;;;16.90;99.90;;;;;;5055093;28;20167;-82
2022/07/27 05:37:00;;;;;;;8.73;1.42;;;17.10;99.90;;;;;;5055060;28;20203;-83
2022/07/27 05:39:26;;;;;;;5.50;1.10;;;17.20;99.90;;;;;;5055416;28;20631;-82
2022/07/27 05:41:51;;;;;;;5.68;1.52;;;17.10;99.90;;;;;;5036118;28;20631;-80
2022/07/27 05:44:17;;;;;;;2.30;1.30;;;17.10;99.90;;;;;;5054962;28;20168;-83
2022/07/27 05:46:43;;;;;;;9.02;1.20;;;17.10;99.90;;;;;;5055199;28;20179;-84
2022/07/27 05:49:09;;;;;;;5.05;1.20;;;17.10;99.90;;;;;;5055110;28;20253;-83
2022/07/27 05:51:34;;;;;;;2.30;0.85;;;17.30;99.90;;;;;;5036970;28;20186;-83
2022/07/27 05:54:00;;;;;;;1.85;0.90;;;17.30;99.90;;;;;;5054909;28;20167;-83
2022/07/27 05:56:26;;;;;;;2.00;1.10;;;17.50;99.90;;;;;;5055309;28;20183;-84
2022/07/27 05:58:52;;;;;;;6.97;1.35;;;17.70;99.90;;;;;;5037248;28;20654;-84
2022/07/27 06:01:18;;;;;;;2.95;0.98;;;17.80;99.90;;;;;;5037477;28;20168;-85
2022/07/27 06:03:44;;;;;;;7.95;0.98;;;18.00;99.90;;;;;;5055312;28;20623;-84
2022/07/27 06:08:54;;;;;;;1.33;0.70;;;17.90;99.90;;;;;;5054949;28;20266;-82
2022/07/27 06:11:20;;;;;;;4.70;1.08;;;17.80;99.90;;;;;;5054779;28;20250;-82
2022/07/27 06:13:45;;;;;;;2.53;0.88;;;17.90;99.90;;;;;;5037058;28;20642;-85
2022/07/27 06:16:11;;;;;;;0.75;0.65;;;18.00;99.90;;;;;;5036908;28;20206;-82
2022/07/27 06:18:37;;;;;;;1.65;0.80;;;17.90;99.90;;;;;;5037347;28;20605;-80
2022/07/27 06:21:03;;;;;;;4.05;1.05;;;18.10;99.90;;;;;;5054464;28;20167;-81
2022/07/27 06:23:29;;;;;;;3.22;1.05;;;18.00;99.90;;;;;;5054057;28;20167;-82
2022/07/27 06:25:56;;;;;;;5.38;1.30;;;18.00;99.90;;;;;;5054190;28;20202;-81
2022/07/27 06:28:21;;;;;;;0.95;0.80;;;18.00;99.90;;;;;;5053983;28;20159;-81
2022/07/27 06:30:48;;;;;;;5.80;0.95;;;17.90;99.90;;;;;;5053963;28;20222;-82
2022/07/27 06:33:14;;;;;;;5.45;1.30;;;17.90;99.90;;;;;;5054166;28;20163;-82
2022/07/27 06:35:40;;;;;;;9.13;1.60;;;18.00;99.90;;;;;;5053926;28;20191;-82
2022/07/27 06:38:07;;;;;;;1.67;1.00;;;18.20;99.90;;;;;;5054256;28;20607;-83
2022/07/27 06:40:33;;;;;;;3.58;0.63;;;18.00;99.90;;;;;;5036282;28;20167;-81
2022/07/27 06:42:59;;;;;;;3.80;0.77;;;18.00;99.90;;;;;;5054032;28;20523;-83
2022/07/27 06:45:24;;;;;;;4.50;0.75;;;18.20;99.90;;;;;;5036297;28;20657;-83
2022/07/27 06:47:50;;;;;;;9.15;0.82;;;18.20;99.90;;;;;;5036583;28;20171;-83
2022/07/27 06:50:17;;;;;;;7.50;0.88;;;18.20;99.90;;;;;;5035817;28;20210;-83
2022/07/27 06:52:43;;;;;;;9.50;0.77;;;18.00;99.90;;;;;;5035638;28;20213;-84
2022/07/27 06:55:09;;;;;;;3.80;0.70;;;18.00;99.90;;;;;;5036152;28;20533;-83
2022/07/27 06:57:34;;;;;;;7.28;0.70;;;18.40;99.90;;;;;;5035976;28;20230;-83
2022/07/27 07:00:00;;;;;;;3.33;0.57;;;18.50;99.90;;;;;;5035935;28;20572;-84
2022/07/27 07:02:26;;;;;;;5.25;1.17;;;18.80;99.90;;;;;;5053363;28;20202;-80
2022/07/27 07:04:52;;;;;;;1.45;0.68;;;19.00;99.90;;;;;;5036393;28;20225;-82
2022/07/27 07:07:19;;;;;;;1.10;0.50;;;18.90;99.90;;;;;;5059461;28;20183;-78
2022/07/27 07:09:45;;;;;;;7.53;0.77;;;19.10;99.90;;;;;;5074541;28;20274;-79
2022/07/27 07:12:11;;;;;;;9.32;0.90;;;19.40;99.90;;;;;;5040183;28;20205;-81
2022/07/27 07:14:36;;;;;;;11.60;1.50;;;19.80;99.90;;;;;;5035606;28;20198;-81
2022/07/27 07:17:02;;;;;;;2.45;0.70;;;19.80;99.90;;;;;;5052856;28;20270;-80
2022/07/27 07:19:27;;;;;;;1.88;0.90;;;19.50;99.90;;;;;;5035361;28;20222;-79
2022/07/27 07:21:53;;;;;;;1.33;0.70;;;19.60;99.90;;;;;;5053248;28;20179;-79
2022/07/27 07:24:19;;;;;;;2.88;0.60;;;19.50;99.90;;;;;;5052996;28;20582;-81
2022/07/27 07:26:44;;;;;;;4.68;0.70;;;19.20;99.90;;;;;;5052673;28;20234;-79
2022/07/27 07:29:10;;;;;;;7.57;0.77;;;19.10;99.90;;;;;;5052679;28;20282;-79
2022/07/27 07:31:36;;;;;;;4.28;0.60;;;19.60;99.90;;;;;;5053343;28;20175;-79
2022/07/27 07:34:03;;;;;;;4.75;0.90;;;19.60;99.90;;;;;;5055194;28;20174;-83
2022/07/27 07:36:28;;;;;;;3.28;0.80;;;19.70;99.90;;;;;;5060481;28;20551;-82
2022/07/27 07:38:54;;;;;;;6.22;0.73;;;19.80;99.90;;;;;;5059394;28;20163;-83
2022/07/27 07:41:25;;;;;;;2.58;0.50;;;19.60;99.90;;;;;;5041440;28;20200;-84
2022/07/27 07:43:50;;;;;;;1.00;0.50;;;19.60;99.90;;;;;;5021953;28;20238;-84
2022/07/27 07:46:16;;;;;;;5.15;1.02;;;19.40;99.90;;;;;;5040067;28;20195;-84
2022/07/27 07:48:43;;;;;;;2.88;0.68;;;19.40;99.90;;;;;;5035500;28;20194;-83
2022/07/27 07:51:09;;;;;;;4.78;0.63;;;19.60;99.90;;;;;;5057469;28;20256;-84
2022/07/27 07:53:34;;;;;;;3.53;0.57;;;19.70;99.90;;;;;;5057560;28;20159;-83
2022/07/27 07:56:01;;;;;;;1.85;0.90;;;19.60;99.90;;;;;;5058337;28;20187;-83
2022/07/27 07:58:27;;;;;;;2.80;0.90;;;19.80;99.90;;;;;;5059772;28;20217;-84
2022/07/27 08:00:52;;;;;;;0.75;0.52;;;19.90;99.90;;;;;;5038917;28;20171;-85
2022/07/27 08:03:23;;;;;;;2.17;0.60;;;20.20;99.90;;;;;;5041002;28;20171;-84
2022/07/27 08:05:49;;;;;;;6.03;1.00;;;20.10;99.90;;;;;;5021535;28;20407;-85
2022/07/27 08:08:18;;;;;;;4.07;0.82;;;20.00;99.90;;;;;;5049772;28;20163;-83
2022/07/27 08:10:44;;;;;;;1.55;1.00;;;20.00;99.90;;;;;;5048173;28;20693;-84
2022/07/27 08:13:11;;;;;;;10.45;1.00;;;20.00;99.90;;;;;;5052228;28;20262;-83
2022/07/27 08:15:38;;;;;;;1.13;1.00;;;19.70;99.90;;;;;;5066356;28;20182;-84
2022/07/27 08:18:04;;;;;;;4.53;0.73;;;19.60;99.90;;;;;;5038246;28;20212;-84
2022/07/27 08:20:30;;;;;;;2.85;0.75;;;19.30;99.90;;;;;;5060380;28;20171;-84
2022/07/27 08:22:56;;;;;;;2.00;0.80;;;19.30;99.90;;;;;;5034539;28;20182;-84
2022/07/27 08:25:22;;;;;;;1.90;0.60;;;19.50;99.90;;;;;;5052657;28;20619;-84
2022/07/27 08:27:47;;;;;;;1.92;0.70;;;19.40;99.90;;;;;;5035044;28;20167;-87
2022/07/27 08:30:13;;;;;;;2.85;1.13;;;19.60;99.90;;;;;;5036064;28;20253;-87
2022/07/27 08:32:47;;;;;;;0.65;0.60;;;19.70;99.90;;;;;;5035709;28;20163;-87
2022/07/27 08:35:16;;;;;;;1.63;0.40;;;19.90;99.90;;;;;;5035930;28;20163;-83
2022/07/27 08:37:41;;;;;;;3.25;0.40;;;20.20;99.90;;;;;;5052898;28;20175;-85
2022/07/27 08:40:08;;;;;;;1.35;0.50;;;20.30;99.90;;;;;;5037458;28;20536;-86
2022/07/27 08:42:34;;;;;;;6.05;0.70;;;20.10;99.90;;;;;;5035206;28;20580;-85
2022/07/27 08:45:00;;;;;;;3.80;0.80;;;19.80;99.90;;;;;;5035094;28;20175;-85
2022/07/27 08:47:26;;;;;;;1.80;0.60;;;20.00;99.90;;;;;;5051835;28;20222;-82
2022/07/27 08:49:52;;;;;;;2.20;0.65;;;20.00;99.90;;;;;;5051922;28;20272;-83
2022/07/27 08:52:19;;;;;;;2.20;0.45;;;20.20;99.90;;;;;;5051146;28;20163;-82
2022/07/27 08:54:45;;;;;;;2.33;0.68;;;20.70;99.90;;;;;;5052159;28;20174;-81
2022/07/27 08:57:11;;;;;;;3.40;0.50;;;21.10;99.90;;;;;;5052481;28;20183;-84
2022/07/27 08:59:37;;;;;;;0.65;0.43;;;21.20;99.90;;;;;;5034627;28;20535;-84
2022/07/27 09:02:07;;;;;;;0.63;0.50;;;21.40;99.90;;;;;;5052143;28;20167;-83
2022/07/27 09:04:33;;;;;;;2.90;0.60;;;21.60;99.90;;;;;;5052294;28;20195;-83
2022/07/27 09:06:59;;;;;;;11.85;0.63;;;21.50;99.90;;;;;;5034033;28;20777;-83
2022/07/27 09:09:25;;;;;;;5.15;1.15;;;21.50;99.90;;;;;;5052234;28;20282;-82
2022/07/27 09:12:08;;;;;;;2.38;1.00;;;20.90;99.90;;;;;;5034319;28;20649;-82
2022/07/27 09:14:36;;;;;;;1.13;0.75;;;21.00;99.90;;;;;;5034661;28;20607;-82
2022/07/27 09:17:22;;;;;;;0.50;0.50;;;20.90;99.90;;;;;;5036035;28;20272;-83
2022/07/27 09:20:01;;;;;;;4.25;0.70;;;20.50;99.90;;;;;;5038998;28;20164;-83
2022/07/27 09:22:57;;;;;;;4.85;0.90;;;20.60;99.90;;;;;;5056449;28;20182;-82
2022/07/27 09:25:29;;;;;;;2.40;1.17;;;20.70;99.90;;;;;;5038287;28;20677;-82
2022/07/27 09:27:57;;;;;;;1.25;1.05;;;20.50;99.90;;;;;;5040450;28;20167;-79
2022/07/27 09:30:23;;;;;;;0.77;0.77;;;20.40;99.90;;;;;;5056057;28;20217;-81
2022/07/27 09:32:57;;;;;;;4.43;1.08;;;20.40;99.90;;;;;;5056213;28;20246;-81
2022/07/27 09:35:25;;;;;;;3.03;0.93;;;20.50;99.90;;;;;;5040513;28;20209;-80
2022/07/27 09:37:51;;;;;;;0.88;0.75;;;20.30;99.90;;;;;;5043606;28;20175;-82
2022/07/27 09:40:22;;;;;;;2.35;0.77;;;20.20;99.90;;;;;;5075923;28;20197;-82
2022/07/27 09:43:09;;;;;;;2.50;0.90;;;20.20;99.90;;;;;;5051182;28;20266;-80
2022/07/27 09:45:37;;;;;;;1.33;0.60;;;20.00;99.90;;;;;;5046702;28;20198;-81
2022/07/27 09:48:09;;;;;;;2.00;0.55;;;20.10;99.90;;;;;;5058396;28;20192;-80
2022/07/27 09:50:37;;;;;;;5.35;0.63;;;20.10;99.90;;;;;;5056627;28;20260;-80
2022/07/27 09:53:12;;;;;;;3.17;0.60;;;20.30;99.90;;;;;;5039318;28;20186;-81
2022/07/27 09:55:40;;;;;;;7.03;0.65;;;20.40;99.90;;;;;;5045398;28;20171;-80
2022/07/27 09:58:06;;;;;;;7.22;0.55;;;20.80;99.90;;;;;;5049478;28;20168;-80
2022/07/27 10:00:33;;;;;;;0.95;0.55;;;20.80;99.90;;;;;;5067069;28;20170;-81
2022/07/27 10:02:59;;;;;;;2.67;0.52;;;20.90;99.90;;;;;;5060538;28;20163;-80
2022/07/27 10:05:25;;;;;;;2.00;0.65;;;21.10;99.90;;;;;;5058432;28;20167;-81
2022/07/27 10:07:53;;;;;;;0.60;0.40;;;21.30;99.90;;;;;;5041033;28;20186;-81
2022/07/27 10:10:20;;;;;;;0.52;0.40;;;21.70;99.90;;;;;;5056801;28;20203;-80
2022/07/27 10:12:47;;;;;;;3.80;0.68;;;21.70;99.90;;;;;;5056681;28;20170;-79
2022/07/27 10:15:13;;;;;;;0.73;0.40;;;22.10;99.90;;;;;;5064817;28;20215;-80
2022/07/27 10:17:43;;;;;;;3.25;0.73;;;22.20;99.90;;;;;;5060905;28;20183;-80
2022/07/27 10:20:12;;;;;;;1.40;0.60;;;22.10;99.90;;;;;;5069034;28;20174;-79
2022/07/27 10:22:57;;;;;;;2.30;0.55;;;21.90;99.90;;;;;;5065902;28;20178;-80
2022/07/27 10:25:26;;;;;;;0.90;0.60;;;21.80;99.90;;;;;;5044561;28;20781;-81
2022/07/27 10:28:16;;;;;;;2.40;0.70;;;21.90;99.90;;;;;;5046253;28;20191;-81
2022/07/27 10:30:42;;;;;;;3.97;0.82;;;22.20;99.90;;;;;;5043004;28;20891;-81
2022/07/27 10:33:41;;;;;;;1.67;0.60;;;22.50;99.90;;;;;;5043861;28;20175;-79
2022/07/27 10:36:18;;;;;;;0.88;0.50;;;22.60;99.90;;;;;;5053292;28;20214;-85
2022/07/27 10:38:50;;;;;;;1.75;0.60;;;23.20;99.90;;;;;;5030376;28;20163;-85
2022/07/27 10:41:27;;;;;;;3.30;0.52;;;23.50;99.90;;;;;;5043132;28;20258;-86
2022/07/27 10:44:16;;;;;;;10.88;0.75;;;23.20;99.90;;;;;;5037569;28;20174;-86
2022/07/27 10:47:02;;;;;;;4.47;0.55;;;23.20;99.90;;;;;;5037542;28;20217;-86
2022/07/27 10:49:30;;;;;;;0.57;0.57;;;22.80;99.90;;;;;;5037053;28;20298;-87
2022/07/27 10:51:57;;;;;;;1.08;0.50;;;22.90;99.90;;;;;;5055221;28;20170;-88
2022/07/27 10:54:26;;;;;;;0.60;0.60;;;22.50;99.90;;;;;;5055100;28;20171;-85
2022/07/27 10:56:56;;;;;;;0.60;0.60;;;22.30;99.90;;;;;;5037204;28;20198;-86
2022/07/27 10:59:42;;;;;;;1.10;1.00;;;22.40;99.90;;;;;;5037455;28;20163;-87
2022/07/27 11:02:13;;;;;;;2.00;1.10;;;22.60;99.90;;;;;;5040448;28;20235;-87
2022/07/27 11:04:51;;;;;;;3.92;1.10;;;22.40;99.90;;;;;;5056661;28;20250;-88
2022/07/27 11:07:21;;;;;;;2.97;1.20;;;22.40;99.90;;;;;;5037653;28;20214;-88
2022/07/27 11:09:49;;;;;;;2.55;1.00;;;22.80;99.90;;;;;;5037596;28;20202;-87
2022/07/27 11:12:17;;;;;;;5.28;1.10;;;23.20;99.90;;;;;;5036973;28;20167;-89
2022/07/27 11:14:47;;;;;;;11.52;1.42;;;23.10;99.90;;;;;;5036965;28;20261;-84
2022/07/27 11:17:13;;;;;;;4.40;1.08;;;23.20;99.90;;;;;;5036803;28;20191;-85
2022/07/27 11:19:39;;;;;;;0.75;0.75;;;23.00;99.90;;;;;;5037343;28;20171;-87
2022/07/27 11:22:04;;;;;;;2.17;0.75;;;22.70;99.90;;;;;;5037020;28;20523;-86
2022/07/27 11:24:32;;;;;;;4.95;1.00;;;22.70;99.90;;;;;;5016572;28;20199;-87
2022/07/27 11:26:58;;;;;;;0.98;0.60;;;22.70;99.90;;;;;;5018810;28;20180;-87
2022/07/27 11:29:24;;;;;;;0.85;0.70;;;22.40;99.90;;;;;;5017656;28;20203;-85
2022/07/27 11:31:53;;;;;;;6.55;0.80;;;22.40;99.90;;;;;;5035297;28;20187;-85
2022/07/27 11:34:27;;;;;;;1.25;0.70;;;22.30;99.90;;;;;;5017421;28;20168;-86
2022/07/27 11:36:53;;;;;;;5.20;0.70;;;22.00;99.90;;;;;;5016833;28;20190;-86
2022/07/27 11:39:25;;;;;;;0.82;0.60;;;21.90;99.90;;;;;;5015642;28;20170;-86
2022/07/27 11:41:58;;;;;;;7.05;0.80;;;22.10;99.90;;;;;;5033654;28;20168;-85
2022/07/27 11:44:24;;;;;;;2.22;0.88;;;22.30;99.90;;;;;;5016018;28;20168;-86
2022/07/27 11:46:51;;;;;;;17.52;1.17;;;22.30;99.90;;;;;;5015846;28;20555;-83
2022/07/27 11:49:28;;;;;;;3.58;0.85;;;22.40;99.90;;;;;;5016163;28;20203;-84
2022/07/27 11:52:00;;;;;;;4.97;0.63;;;22.30;99.90;;;;;;5015442;28;20545;-84
2022/07/27 11:54:27;;;;;;;3.53;1.25;;;22.40;99.90;;;;;;5033703;28;20160;-85
2022/07/27 11:56:59;;;;;;;1.00;0.70;;;22.10;99.90;;;;;;5033348;28;20242;-84
2022/07/27 11:59:36;;;;;;;1.70;0.45;;;22.00;99.90;;;;;;5015804;28;20251;-85
2022/07/27 12:02:12;;;;;;;3.25;0.60;;;22.10;99.90;;;;;;5015536;28;20677;-84
2022/07/27 12:04:40;;;;;;;5.03;0.70;;;22.30;99.90;;;;;;5015652;28;20178;-84
2022/07/27 12:07:18;;;;;;;1.15;0.50;;;22.50;99.90;;;;;;5015277;28;20552;-83
2022/07/27 12:09:57;;;;;;;1.52;0.70;;;22.60;99.90;;;;;;5019309;28;20275;-84
2022/07/27 12:12:33;;;;;;;4.35;0.80;;;22.80;99.90;;;;;;5024308;28;20167;-82
2022/07/27 12:15:15;;;;;;;0.52;0.52;;;22.90;99.90;;;;;;5040596;28;20190;-83
2022/07/27 12:17:42;;;;;;;0.75;0.63;;;22.50;99.90;;;;;;5018942;28;20219;-83
2022/07/27 12:20:23;;;;;;;6.97;0.70;;;22.50;99.90;;;;;;5017328;28;20172;-87
2022/07/27 12:22:52;;;;;;;1.10;0.82;;;22.60;99.90;;;;;;5015247;28;20175;-84
2022/07/27 12:25:18;;;;;;;2.05;0.90;;;22.30;99.90;;;;;;5015214;28;20191;-83
2022/07/27 12:28:03;;;;;;;1.25;0.75;;;22.20;99.90;;;;;;5015054;28;20552;-84
2022/07/27 12:30:50;;;;;;;1.52;0.80;;;22.40;99.90;;;;;;5015723;28;20299;-84
2022/07/27 12:33:29;;;;;;;1.65;0.90;;;22.50;99.90;;;;;;5018806;28;20656;-84
2022/07/27 12:35:56;;;;;;;9.38;1.00;;;22.60;99.90;;;;;;5032729;28;20190;-84
2022/07/27 12:38:22;;;;;;;3.10;0.95;;;23.00;99.90;;;;;;5033957;28;20628;-84
2022/07/27 12:40:57;;;;;;;8.50;1.00;;;23.00;99.90;;;;;;5033161;28;20183;-85
2022/07/27 12:43:24;;;;;;;6.32;0.90;;;22.70;99.90;;;;;;5024862;28;20650;-84
2022/07/27 12:45:52;;;;;;;1.45;0.80;;;22.40;99.90;;;;;;5035855;28;20210;-85
2022/07/27 12:48:22;;;;;;;2.10;0.88;;;22.10;99.90;;;;;;5052474;28;20644;-84
2022/07/27 12:51:01;;;;;;;2.13;1.15;;;22.10;99.90;;;;;;5053150;28;20195;-88
2022/07/27 12:53:28;;;;;;;3.65;0.80;;;22.60;99.90;;;;;;5040126;28;20156;-83
2022/07/27 12:55:56;;;;;;;1.25;0.80;;;22.70;99.90;;;;;;5057921;28;20187;-87